Time;durP1;ratioP1;P1;durP2;ratioP2;P2;SDS_P1;SDS_P2;PMS_P1;PMS_P2;Temp;Humidity;BMP_temperature;BMP_pressure;BME280_temperature;BME280_humidity;BME280_pressure;Samples;Min_cycle;Max_cycle;Signal;HPM_P1;HPM_P2
2022/08/04 00:00:05;;;;;;;13.48;3.65;;;24.80;1.00;;;;;;5116263;28;20198;-76
2022/08/04 00:02:55;;;;;;;9.43;3.80;;;24.80;1.00;;;;;;5098388;28;20262;-76
2022/08/04 00:05:39;;;;;;;7.32;3.67;;;24.80;1.00;;;;;;5116253;28;20215;-75
2022/08/04 00:08:24;;;;;;;11.48;3.60;;;24.80;1.00;;;;;;5116466;28;20721;-76
2022/08/04 00:10:53;;;;;;;8.82;3.80;;;24.70;1.00;;;;;;5116554;28;20168;-76
2022/08/04 00:13:24;;;;;;;8.63;3.78;;;24.70;1.00;;;;;;5116108;28;20215;-75
2022/08/04 00:16:05;;;;;;;5.65;3.50;;;24.80;1.00;;;;;;5098086;28;20163;-75
2022/08/04 00:18:59;;;;;;;9.13;3.45;;;24.80;1.00;;;;;;5116362;28;20160;-75
2022/08/04 00:21:26;;;;;;;7.90;3.42;;;24.80;1.00;;;;;;5108145;28;20713;-75
2022/08/04 00:23:54;;;;;;;4.70;3.42;;;24.70;1.00;;;;;;5115242;28;20187;-75
2022/08/04 00:26:19;;;;;;;8.88;3.38;;;24.60;1.00;;;;;;5115682;28;20175;-76
2022/08/04 00:28:46;;;;;;;7.60;3.55;;;24.50;1.00;;;;;;5097851;28;20179;-75
2022/08/04 00:31:14;;;;;;;6.13;3.35;;;24.60;1.00;;;;;;5115946;28;20190;-75
2022/08/04 00:33:43;;;;;;;8.55;3.35;;;24.60;1.00;;;;;;5115604;28;20183;-75
2022/08/04 00:36:11;;;;;;;9.70;4.18;;;24.50;1.00;;;;;;5115931;28;20174;-75
2022/08/04 00:38:40;;;;;;;7.18;3.95;;;24.40;1.00;;;;;;5115453;28;20559;-75
2022/08/04 00:41:12;;;;;;;10.02;4.03;;;24.30;1.00;;;;;;5115486;28;20244;-75
2022/08/04 00:43:44;;;;;;;8.02;4.78;;;24.30;1.00;;;;;;5115983;28;20159;-76
2022/08/04 00:46:33;;;;;;;7.60;3.60;;;24.10;1.00;;;;;;5115690;28;20218;-75
2022/08/04 00:49:04;;;;;;;8.77;4.28;;;24.20;1.00;;;;;;5115504;28;20209;-76
2022/08/04 00:51:32;;;;;;;7.10;3.72;;;24.10;1.00;;;;;;5115664;28;20711;-75
2022/08/04 00:54:06;;;;;;;8.60;3.65;;;24.20;1.00;;;;;;5115663;28;20259;-75
2022/08/04 00:56:52;;;;;;;10.90;4.22;;;24.30;1.00;;;;;;5115627;28;20168;-76
2022/08/04 00:59:39;;;;;;;6.07;3.60;;;24.20;1.00;;;;;;5115487;28;20191;-75
2022/08/04 01:02:40;;;;;;;8.45;3.90;;;24.10;1.00;;;;;;5115825;28;20255;-74
2022/08/04 01:05:20;;;;;;;9.00;3.55;;;24.10;1.00;;;;;;5115033;28;20186;-76
2022/08/04 01:07:55;;;;;;;10.27;4.15;;;24.10;1.00;;;;;;5115480;28;20227;-75
2022/08/04 01:10:27;;;;;;;8.88;4.13;;;24.10;1.00;;;;;;5115136;28;20162;-75
2022/08/04 01:13:19;;;;;;;5.75;3.92;;;24.10;1.00;;;;;;5115066;28;20298;-76
2022/08/04 01:16:00;;;;;;;7.28;4.15;;;24.00;1.00;;;;;;5032868;28;20193;-75
2022/08/04 01:18:32;;;;;;;6.15;4.25;;;24.00;1.00;;;;;;5032255;28;20173;-75
2022/08/04 01:21:19;;;;;;;8.40;4.38;;;23.80;7.30;;;;;;5032495;28;20217;-75
2022/08/04 01:23:44;;;;;;;7.78;4.30;;;23.80;10.40;;;;;;5032714;28;20248;-76
2022/08/04 01:26:47;;;;;;;14.88;4.15;;;23.80;12.00;;;;;;5032434;28;20724;-75
2022/08/04 01:29:14;;;;;;;9.15;4.53;;;23.80;6.40;;;;;;5032428;28;20166;-75
2022/08/04 01:32:35;;;;;;;11.13;4.55;;;23.90;8.60;;;;;;5031821;28;20170;-75
2022/08/04 01:35:28;;;;;;;11.13;4.50;;;23.90;5.50;;;;;;4973175;28;20179;-75
2022/08/04 01:38:05;;;;;;;6.13;4.53;;;23.90;5.80;;;;;;4971749;28;20337;-76
2022/08/04 01:40:32;;;;;;;10.55;4.65;;;23.90;7.90;;;;;;4973386;28;20218;-75
2022/08/04 01:43:00;;;;;;;4.32;3.92;;;23.80;7.90;;;;;;4973247;28;20175;-75
2022/08/04 01:45:28;;;;;;;8.52;4.35;;;23.70;10.40;;;;;;4957111;28;20190;-75
2022/08/04 01:47:55;;;;;;;9.63;4.05;;;23.60;18.30;;;;;;4972865;28;20168;-75
2022/08/04 01:50:22;;;;;;;6.90;4.50;;;23.50;20.60;;;;;;4973174;28;20180;-75
2022/08/04 01:52:53;;;;;;;11.40;4.80;;;23.50;18.90;;;;;;5011635;28;20181;-74
2022/08/04 01:55:19;;;;;;;10.40;4.82;;;23.60;18.20;;;;;;5052076;28;20256;-74
2022/08/04 01:57:52;;;;;;;11.98;4.47;;;23.50;15.80;;;;;;5051911;28;20161;-74
2022/08/04 02:00:23;;;;;;;10.05;4.95;;;23.50;13.20;;;;;;5051278;28;20228;-74
2022/08/04 02:02:50;;;;;;;6.03;4.80;;;23.30;22.80;;;;;;5051681;28;20169;-74
2022/08/04 02:05:17;;;;;;;5.10;4.47;;;23.40;21.80;;;;;;5077367;28;20306;-74
2022/08/04 02:08:05;;;;;;;11.25;5.07;;;23.50;17.30;;;;;;5114275;28;20175;-74
2022/08/04 02:10:33;;;;;;;9.02;4.53;;;23.30;17.30;;;;;;5114141;28;20174;-74
2022/08/04 02:13:16;;;;;;;11.57;4.70;;;23.20;23.90;;;;;;5113935;28;20305;-74
2022/08/04 02:16:27;;;;;;;8.07;4.68;;;23.20;23.90;;;;;;5113699;28;20178;-74
2022/08/04 02:19:03;;;;;;;9.55;4.43;;;23.20;19.70;;;;;;5015059;28;20585;-75
2022/08/04 02:21:31;;;;;;;9.23;4.20;;;23.20;20.90;;;;;;5031272;28;20212;-74
2022/08/04 02:24:01;;;;;;;7.75;4.50;;;23.30;18.70;;;;;;5031251;28;20221;-74
2022/08/04 02:26:30;;;;;;;8.35;4.20;;;23.20;18.20;;;;;;5031443;28;20178;-74
2022/08/04 02:29:09;;;;;;;11.80;3.92;;;23.10;18.20;;;;;;5031337;28;20684;-74
2022/08/04 02:31:46;;;;;;;6.80;4.60;;;23.20;18.90;;;;;;5030992;28;20228;-74
2022/08/04 02:34:53;;;;;;;7.53;4.60;;;23.20;16.20;;;;;;5031053;28;20220;-74
2022/08/04 02:37:20;;;;;;;11.30;4.85;;;23.20;17.30;;;;;;5031203;28;20208;-74
2022/08/04 02:39:51;;;;;;;14.88;4.90;;;23.10;17.70;;;;;;5031309;28;20197;-74
2022/08/04 02:42:17;;;;;;;9.25;5.03;;;23.10;15.30;;;;;;5030992;28;20173;-74
2022/08/04 02:44:48;;;;;;;8.55;5.38;;;23.20;14.10;;;;;;5030692;28;20629;-74
2022/08/04 02:47:19;;;;;;;7.70;5.30;;;23.20;13.10;;;;;;5030309;28;20178;-74
2022/08/04 02:49:45;;;;;;;10.20;5.43;;;23.20;14.30;;;;;;5076391;28;20535;-74
2022/08/04 02:52:13;;;;;;;7.05;5.72;;;23.10;14.10;;;;;;5113465;28;20167;-74
2022/08/04 02:54:41;;;;;;;8.02;5.30;;;23.10;15.80;;;;;;5113737;28;20212;-74
2022/08/04 02:57:12;;;;;;;9.02;5.75;;;23.10;15.70;;;;;;5113488;28;20174;-74
2022/08/04 03:00:04;;;;;;;11.30;6.25;;;23.00;14.20;;;;;;5113216;28;20203;-75
2022/08/04 03:02:54;;;;;;;10.45;6.05;;;23.00;17.10;;;;;;5113694;28;20232;-75
2022/08/04 03:05:43;;;;;;;9.23;6.38;;;22.90;20.00;;;;;;5113623;28;20181;-74
2022/08/04 03:08:33;;;;;;;10.48;6.00;;;22.90;21.60;;;;;;5113544;28;20641;-74
2022/08/04 03:11:23;;;;;;;10.98;5.32;;;22.80;23.30;;;;;;5113109;28;20176;-74
2022/08/04 03:14:10;;;;;;;9.60;5.75;;;22.80;24.30;;;;;;5094873;28;20175;-74
2022/08/04 03:16:54;;;;;;;10.00;5.38;;;22.70;29.70;;;;;;5095229;28;20167;-74
2022/08/04 03:19:48;;;;;;;9.70;5.15;;;22.70;25.20;;;;;;5095171;28;20171;-74
2022/08/04 03:22:45;;;;;;;8.85;6.20;;;22.60;27.50;;;;;;5113072;28;20230;-74
2022/08/04 03:25:26;;;;;;;10.18;5.70;;;22.60;27.70;;;;;;5113120;28;20164;-74
2022/08/04 03:28:24;;;;;;;10.63;5.32;;;22.60;27.10;;;;;;5112927;28;20202;-74
2022/08/04 03:31:03;;;;;;;8.23;5.68;;;22.60;25.20;;;;;;5111954;28;20239;-75
2022/08/04 03:34:20;;;;;;;11.98;5.15;;;22.60;23.70;;;;;;5113049;28;20198;-75
2022/08/04 03:37:16;;;;;;;12.43;5.70;;;22.60;25.20;;;;;;5013854;28;20190;-75
2022/08/04 03:40:05;;;;;;;13.38;5.68;;;22.50;23.80;;;;;;5030307;28;20305;-75
2022/08/04 03:42:42;;;;;;;10.13;5.43;;;22.60;20.30;;;;;;5030382;28;20181;-75
2022/08/04 03:45:32;;;;;;;11.70;5.13;;;22.50;22.70;;;;;;5029960;28;20189;-74
2022/08/04 03:48:28;;;;;;;7.78;4.95;;;22.50;21.40;;;;;;5013605;28;20237;-75
2022/08/04 03:54:11;;;;;;;11.88;4.97;;;22.50;17.20;;;;;;5030239;28;20185;-75
2022/08/04 03:57:11;;;;;;;8.80;4.75;;;22.50;18.90;;;;;;5029961;28;20257;-75
2022/08/04 04:00:08;;;;;;;6.63;3.78;;;22.50;12.30;;;;;;5028723;28;20217;-75
2022/08/04 04:03:10;;;;;;;7.43;3.58;;;22.30;1.00;;;;;;5033808;28;20180;-74
2022/08/04 04:06:06;;;;;;;7.10;3.95;;;22.40;1.00;;;;;;5033306;28;20217;-74
2022/08/04 04:08:51;;;;;;;10.88;3.72;;;22.40;1.00;;;;;;5033583;28;20181;-74
2022/08/04 04:11:31;;;;;;;9.25;4.22;;;22.40;1.00;;;;;;5032747;28;20217;-74
2022/08/04 04:14:03;;;;;;;9.93;4.13;;;22.50;1.00;;;;;;5067912;28;20184;-75
2022/08/04 04:17:07;;;;;;;5.63;3.83;;;22.50;1.00;;;;;;5075482;28;20165;-74
2022/08/04 04:19:46;;;;;;;7.13;3.85;;;22.40;1.00;;;;;;5075063;28;20247;-75
2022/08/04 04:22:23;;;;;;;9.70;4.85;;;22.50;1.00;;;;;;5075255;28;20632;-74
2022/08/04 04:25:11;;;;;;;10.27;4.55;;;22.50;1.00;;;;;;5075179;28;20176;-74
2022/08/04 04:28:04;;;;;;;9.27;3.78;;;22.60;1.00;;;;;;5075146;28;20192;-74
2022/08/04 04:30:45;;;;;;;8.25;4.50;;;22.40;1.00;;;;;;5075197;28;20177;-74
2022/08/04 04:33:23;;;;;;;8.00;4.15;;;22.50;1.00;;;;;;5074473;28;20188;-74
2022/08/04 04:36:18;;;;;;;8.88;4.15;;;22.50;1.00;;;;;;5073843;28;20555;-74
2022/08/04 04:39:00;;;;;;;8.23;4.00;;;22.60;1.00;;;;;;5073150;28;20196;-74
2022/08/04 04:41:36;;;;;;;7.57;4.07;;;22.80;1.00;;;;;;5089112;28;20219;-74
2022/08/04 04:44:26;;;;;;;9.48;4.45;;;23.00;1.00;;;;;;5075146;28;20170;-74
2022/08/04 04:47:43;;;;;;;10.23;4.53;;;23.20;1.00;;;;;;5074728;28;20172;-74
2022/08/04 04:50:22;;;;;;;12.20;4.53;;;23.40;1.00;;;;;;5052557;28;20259;-74
2022/08/04 04:53:29;;;;;;;10.75;4.20;;;23.30;1.00;;;;;;5052079;28;20213;-75
2022/08/04 04:56:07;;;;;;;11.07;4.60;;;23.50;1.00;;;;;;4953804;29;20184;-74
2022/08/04 04:58:34;;;;;;;9.70;4.10;;;23.70;1.00;;;;;;4954653;29;20208;-74
2022/08/04 05:01:29;;;;;;;9.77;4.00;;;23.90;1.00;;;;;;4953767;29;20220;-74
2022/08/04 05:04:35;;;;;;;9.13;3.53;;;23.90;1.00;;;;;;4953920;29;20176;-74
2022/08/04 05:07:08;;;;;;;7.22;4.05;;;24.00;1.00;;;;;;4899961;29;20181;-74
2022/08/04 05:09:49;;;;;;;6.78;3.58;;;24.00;1.00;;;;;;4915452;29;20671;-74
2022/08/04 05:12:25;;;;;;;11.45;4.63;;;23.90;1.00;;;;;;4915422;29;20242;-75
2022/08/04 05:14:52;;;;;;;9.98;4.50;;;23.90;1.00;;;;;;4915676;29;20213;-74
2022/08/04 05:17:32;;;;;;;11.77;4.70;;;23.70;1.00;;;;;;4915711;29;20284;-74
2022/08/04 05:20:07;;;;;;;9.00;4.63;;;23.80;1.00;;;;;;4915695;29;20217;-75
2022/08/04 05:22:36;;;;;;;8.93;4.30;;;23.80;1.00;;;;;;4915661;29;20269;-74
2022/08/04 05:25:12;;;;;;;7.93;4.60;;;23.80;1.00;;;;;;4915155;29;20186;-74
2022/08/04 05:27:44;;;;;;;10.15;5.07;;;23.90;1.00;;;;;;4915866;29;20658;-73
2022/08/04 05:30:11;;;;;;;11.20;5.53;;;24.10;1.00;;;;;;4915401;29;20267;-74
2022/08/04 05:32:43;;;;;;;10.75;4.85;;;24.10;1.00;;;;;;4937080;28;20759;-74
2022/08/04 05:35:13;;;;;;;8.63;5.18;;;24.30;1.00;;;;;;4973058;28;20175;-74
2022/08/04 05:37:42;;;;;;;6.53;4.60;;;24.60;1.00;;;;;;4972674;28;20179;-74
2022/08/04 05:40:10;;;;;;;13.10;4.88;;;24.70;1.00;;;;;;4972452;28;20204;-75
2022/08/04 05:42:40;;;;;;;11.23;4.53;;;25.10;1.00;;;;;;5029606;28;20520;-75
2022/08/04 05:45:07;;;;;;;14.18;4.60;;;25.70;1.00;;;;;;5073128;28;20533;-75
2022/08/04 05:47:33;;;;;;;11.73;4.85;;;26.10;99.90;;;;;;5072771;28;20173;-75
2022/08/04 05:50:01;;;;;;;10.45;4.50;;;26.30;1.00;;;;;;5073458;28;20627;-75
2022/08/04 05:52:27;;;;;;;12.27;4.78;;;26.40;1.00;;;;;;5072429;28;20255;-75
2022/08/04 05:54:55;;;;;;;13.50;4.72;;;26.80;99.90;;;;;;5072108;28;20635;-76
2022/08/04 05:57:21;;;;;;;8.18;4.53;;;27.00;99.90;;;;;;5073109;28;20181;-75
2022/08/04 05:59:49;;;;;;;9.70;4.45;;;27.30;99.90;;;;;;5072974;28;20169;-75
2022/08/04 06:02:18;;;;;;;8.55;4.30;;;27.60;95.40;;;;;;5072477;28;20173;-76
2022/08/04 06:04:49;;;;;;;7.30;4.00;;;28.40;1.00;;;;;;5063652;28;20173;-76
2022/08/04 06:07:15;;;;;;;12.98;4.13;;;29.30;99.90;;;;;;5051695;28;20259;-79
2022/08/04 06:09:41;;;;;;;7.47;4.05;;;29.90;99.90;;;;;;5056584;28;20184;-77
2022/08/04 06:12:18;;;;;;;11.25;4.70;;;30.00;99.90;;;;;;5076864;28;20230;-77
2022/08/04 06:14:46;;;;;;;11.85;4.20;;;29.50;1.00;;;;;;5089951;28;20210;-76
2022/08/04 06:17:16;;;;;;;8.55;4.10;;;28.90;99.90;;;;;;5092432;28;20631;-76
2022/08/04 06:19:43;;;;;;;13.00;4.43;;;28.60;1.00;;;;;;5092815;28;20168;-76
2022/08/04 06:22:11;;;;;;;10.02;4.20;;;28.50;99.90;;;;;;5093716;28;20183;-77
2022/08/04 06:24:38;;;;;;;12.65;4.55;;;28.40;1.00;;;;;;5109496;28;20189;-77
2022/08/04 06:27:05;;;;;;;9.93;4.07;;;28.40;1.00;;;;;;5094020;28;20171;-77
2022/08/04 06:29:40;;;;;;;7.53;3.63;;;28.80;99.90;;;;;;5094351;28;20172;-81
2022/08/04 06:32:23;;;;;;;10.50;4.07;;;30.10;1.00;;;;;;5112953;28;20181;-80
2022/08/04 06:34:53;;;;;;;13.85;4.50;;;31.60;1.00;;;;;;5094321;28;20178;-81
2022/08/04 06:37:20;;;;;;;7.97;4.35;;;33.20;99.90;;;;;;5112215;28;20202;-83
2022/08/04 06:39:47;;;;;;;11.95;4.50;;;34.50;99.90;;;;;;5112424;28;20190;-82
2022/08/04 06:42:12;;;;;;;8.18;3.80;;;34.70;99.90;;;;;;5113002;28;20254;-82
2022/08/04 06:44:41;;;;;;;7.90;3.80;;;34.50;99.90;;;;;;5112876;28;20199;-80
2022/08/04 06:47:08;;;;;;;10.45;4.80;;;33.80;99.90;;;;;;5112708;28;20779;-83
2022/08/04 06:49:36;;;;;;;9.23;4.13;;;33.50;99.90;;;;;;5112959;28;20163;-82
2022/08/04 06:52:03;;;;;;;10.98;3.97;;;33.60;99.90;;;;;;5094682;28;20186;-80
2022/08/04 06:54:29;;;;;;;5.57;3.80;;;34.00;99.90;;;;;;5093640;28;20172;-81
2022/08/04 06:56:56;;;;;;;7.68;3.97;;;35.20;99.90;;;;;;5111628;28;20214;-82
2022/08/04 06:59:23;;;;;;;9.82;4.20;;;36.10;99.90;;;;;;5094090;28;20175;-85
2022/08/04 07:01:50;;;;;;;8.50;3.72;;;37.50;99.90;;;;;;5112640;28;20217;-81
2022/08/04 07:04:15;;;;;;;7.40;3.55;;;38.30;99.90;;;;;;5114068;28;20581;-79
2022/08/04 07:06:41;;;;;;;12.05;3.80;;;39.30;99.90;;;;;;5112378;28;20258;-81
2022/08/04 07:09:07;;;;;;;14.40;4.18;;;39.00;95.90;;;;;;5093935;28;20174;-79
2022/08/04 07:11:33;;;;;;;6.43;3.50;;;38.20;93.50;;;;;;5111764;28;20713;-80
2022/08/04 07:14:00;;;;;;;6.35;3.80;;;37.70;96.10;;;;;;5114162;28;20167;-81
2022/08/04 07:16:27;;;;;;;11.43;3.50;;;37.90;95.60;;;;;;5113840;28;20267;-80
2022/08/04 07:18:52;;;;;;;5.47;3.40;;;37.10;97.40;;;;;;5115927;28;20179;-80
2022/08/04 07:21:22;;;;;;;10.90;3.72;;;36.40;99.90;;;;;;5113435;28;20202;-78
2022/08/04 07:23:48;;;;;;;11.32;4.20;;;36.50;99.90;;;;;;5115170;28;20175;-80
2022/08/04 07:26:16;;;;;;;7.38;3.90;;;37.50;99.90;;;;;;5113069;28;20163;-83
2022/08/04 07:28:41;;;;;;;12.00;4.25;;;37.00;97.40;;;;;;5111601;28;20167;-80
2022/08/04 07:31:11;;;;;;;10.32;4.80;;;36.40;99.90;;;;;;5111681;28;20239;-79
2022/08/04 07:33:38;;;;;;;9.15;3.63;;;35.80;99.90;;;;;;5113244;28;20277;-79
2022/08/04 07:36:04;;;;;;;7.10;3.22;;;35.10;99.90;;;;;;5115817;28;20265;-79
2022/08/04 07:38:29;;;;;;;8.00;3.78;;;34.40;99.90;;;;;;5116417;28;20216;-78
2022/08/04 07:40:55;;;;;;;11.93;3.60;;;33.60;99.90;;;;;;5116038;28;20207;-79
2022/08/04 07:43:21;;;;;;;7.38;4.03;;;32.90;99.90;;;;;;5115980;28;20194;-78
2022/08/04 07:45:47;;;;;;;13.65;4.55;;;32.10;99.90;;;;;;5115594;28;20264;-78
2022/08/04 07:48:14;;;;;;;7.35;4.45;;;31.90;99.90;;;;;;5115210;28;20529;-78
2022/08/04 07:50:43;;;;;;;7.00;4.43;;;31.00;1.00;;;;;;5116246;28;20221;-79
2022/08/04 07:53:11;;;;;;;12.13;4.38;;;30.30;21.80;;;;;;5115236;28;20267;-79
2022/08/04 07:55:37;;;;;;;11.32;4.63;;;29.80;1.00;;;;;;5097290;28;20266;-79
2022/08/04 07:58:03;;;;;;;9.23;4.55;;;29.30;99.90;;;;;;5115761;28;20221;-81
2022/08/04 08:00:29;;;;;;;9.25;4.80;;;29.00;1.00;;;;;;5113993;28;20191;-78
2022/08/04 08:02:55;;;;;;;10.65;4.72;;;29.00;99.90;;;;;;5115514;28;20171;-79
2022/08/04 08:05:21;;;;;;;10.63;4.70;;;28.90;1.00;;;;;;5115147;28;20187;-78
2022/08/04 08:07:51;;;;;;;17.73;5.07;;;28.90;1.00;;;;;;5115230;28;20187;-78
2022/08/04 08:10:17;;;;;;;12.13;4.85;;;28.70;1.00;;;;;;5115240;28;20164;-77
2022/08/04 08:12:42;;;;;;;10.75;4.93;;;28.50;1.00;;;;;;5115247;28;20215;-78
2022/08/04 08:15:11;;;;;;;8.82;5.00;;;28.20;1.00;;;;;;5115481;28;20167;-78
2022/08/04 08:17:39;;;;;;;10.70;4.80;;;27.40;1.00;;;;;;5107475;28;20179;-77
2022/08/04 08:20:08;;;;;;;10.20;5.75;;;27.00;99.90;;;;;;5113495;28;20423;-77
2022/08/04 08:22:35;;;;;;;11.95;5.70;;;26.60;1.00;;;;;;5088071;28;20715;-77
2022/08/04 08:25:01;;;;;;;9.68;5.45;;;26.50;1.00;;;;;;5095845;28;20175;-75
2022/08/04 08:27:27;;;;;;;10.15;6.20;;;26.00;1.00;;;;;;5114488;28;20300;-76
2022/08/04 08:29:54;;;;;;;8.90;5.88;;;25.90;1.00;;;;;;5114478;28;20175;-77
2022/08/04 08:32:20;;;;;;;9.45;5.70;;;25.60;1.00;;;;;;5113100;28;20187;-78
2022/08/04 08:34:46;;;;;;;13.10;7.25;;;25.70;1.00;;;;;;5096391;28;20170;-76
2022/08/04 08:37:26;;;;;;;10.57;7.10;;;25.90;1.00;;;;;;5114549;28;20167;-79
2022/08/04 08:40:21;;;;;;;16.05;8.82;;;26.00;1.00;;;;;;5114258;28;20174;-78
2022/08/04 08:43:06;;;;;;;13.88;9.80;;;26.00;1.00;;;;;;5031460;28;20209;-77
2022/08/04 08:46:03;;;;;;;16.20;9.95;;;25.80;1.00;;;;;;5030061;28;20176;-77
2022/08/04 08:48:35;;;;;;;14.95;11.55;;;25.70;1.00;;;;;;5028875;28;20669;-76
2022/08/04 08:51:30;;;;;;;20.73;12.75;;;25.60;1.00;;;;;;5029737;28;20174;-77
2022/08/04 08:54:10;;;;;;;21.55;12.45;;;25.50;1.00;;;;;;5030119;28;20177;-77
2022/08/04 08:56:59;;;;;;;19.55;12.63;;;25.50;1.00;;;;;;5030911;28;20219;-76
2022/08/04 08:59:52;;;;;;;21.15;12.93;;;25.40;1.00;;;;;;5031403;28;20192;-76
2022/08/04 09:02:32;;;;;;;19.77;13.60;;;25.30;1.00;;;;;;5029364;28;20272;-75
2022/08/04 09:05:27;;;;;;;20.13;12.82;;;25.30;1.00;;;;;;5031134;28;20190;-77
2022/08/04 09:08:10;;;;;;;22.80;13.55;;;25.10;1.00;;;;;;5030439;28;20183;-77
2022/08/04 09:10:50;;;;;;;23.00;13.45;;;25.00;1.00;;;;;;5014127;28;20205;-77
2022/08/04 09:13:18;;;;;;;25.33;12.63;;;24.80;1.00;;;;;;5031092;28;20279;-75
2022/08/04 09:15:48;;;;;;;23.77;12.90;;;24.80;1.00;;;;;;5030477;28;20260;-76
2022/08/04 09:18:25;;;;;;;21.05;13.32;;;24.50;1.00;;;;;;5030634;28;20178;-76
2022/08/04 09:20:59;;;;;;;24.50;13.63;;;24.50;5.50;;;;;;5073398;28;20200;-75
2022/08/04 09:23:46;;;;;;;18.15;14.07;;;24.40;6.20;;;;;;5087484;28;20172;-76
2022/08/04 09:26:28;;;;;;;27.48;14.90;;;24.10;15.80;;;;;;5071646;28;20172;-75
2022/08/04 09:28:59;;;;;;;23.63;15.23;;;24.10;20.00;;;;;;5072897;28;20176;-74
2022/08/04 09:31:40;;;;;;;23.45;14.60;;;24.10;18.00;;;;;;5072290;28;20165;-75
2022/08/04 09:34:33;;;;;;;23.10;15.35;;;24.30;13.20;;;;;;5056821;28;20164;-76
2022/08/04 09:37:27;;;;;;;27.90;15.85;;;24.20;4.00;;;;;;5071191;28;20200;-75
2022/08/04 09:40:06;;;;;;;25.15;15.60;;;24.50;3.50;;;;;;5030224;28;20174;-78
2022/08/04 09:42:59;;;;;;;25.42;15.63;;;24.50;1.00;;;;;;5030636;28;20223;-75
2022/08/04 09:45:32;;;;;;;25.00;16.00;;;24.60;1.00;;;;;;5029864;28;20181;-74
2022/08/04 09:48:05;;;;;;;30.70;16.27;;;25.00;1.00;;;;;;5029752;28;20177;-74
2022/08/04 09:50:44;;;;;;;27.05;16.40;;;25.40;1.00;;;;;;5029940;28;20217;-75
2022/08/04 09:53:43;;;;;;;21.17;15.55;;;25.40;1.00;;;;;;5030170;28;20205;-75
2022/08/04 09:56:46;;;;;;;23.73;16.05;;;25.60;1.00;;;;;;5029860;28;20208;-75
2022/08/04 09:59:37;;;;;;;22.40;16.88;;;25.50;1.00;;;;;;5029903;28;20259;-77
2022/08/04 10:02:08;;;;;;;27.73;18.40;;;25.60;1.00;;;;;;4971148;28;20226;-77
2022/08/04 10:04:36;;;;;;;23.13;16.70;;;25.30;1.00;;;;;;4955200;28;20184;-77
2022/08/04 10:07:41;;;;;;;24.02;18.45;;;24.90;1.00;;;;;;4971078;28;20254;-77
2022/08/04 10:10:29;;;;;;;26.38;19.10;;;24.70;1.00;;;;;;4970584;28;20207;-77
2022/08/04 10:13:25;;;;;;;24.80;19.17;;;24.30;8.80;;;;;;4970671;28;20232;-76
2022/08/04 10:16:10;;;;;;;23.20;18.13;;;25.70;1.00;;;;;;4977589;28;20172;-75
2022/08/04 10:18:44;;;;;;;24.05;18.10;;;27.10;1.00;;;;;;5042590;28;20180;-74
2022/08/04 10:21:25;;;;;;;22.38;17.45;;;28.40;1.00;;;;;;5049490;28;20210;-76
2022/08/04 10:24:14;;;;;;;24.00;17.92;;;29.70;1.00;;;;;;5049151;28;20165;-79
2022/08/04 10:27:08;;;;;;;22.85;18.08;;;30.00;1.00;;;;;;5049391;28;20185;-77
2022/08/04 10:29:47;;;;;;;21.30;17.50;;;29.90;99.90;;;;;;5049480;28;20177;-78
2022/08/04 10:32:21;;;;;;;20.73;17.73;;;29.70;99.90;;;;;;5035781;28;20581;-75
2022/08/04 10:35:09;;;;;;;19.73;17.35;;;30.20;1.00;;;;;;5032828;28;20219;-76
2022/08/04 10:37:47;;;;;;;23.13;15.25;;;31.20;78.30;;;;;;5031092;28;20721;-73
2022/08/04 10:40:39;;;;;;;19.20;14.95;;;32.00;99.90;;;;;;5076309;28;20201;-75
2022/08/04 10:43:29;;;;;;;17.60;15.65;;;32.10;99.90;;;;;;5091683;28;20182;-74
2022/08/04 10:46:12;;;;;;;16.00;14.15;;;33.00;1.00;;;;;;5089236;28;20498;-75
2022/08/04 10:49:01;;;;;;;16.50;14.80;;;33.50;1.00;;;;;;5091699;28;20175;-75
2022/08/04 10:51:29;;;;;;;16.63;14.77;;;33.70;1.00;;;;;;5091403;28;20168;-74
2022/08/04 10:53:59;;;;;;;19.73;15.50;;;33.30;1.00;;;;;;5090831;28;20164;-74
2022/08/04 10:56:53;;;;;;;18.38;14.80;;;32.40;1.00;;;;;;5090661;28;20168;-78
2022/08/04 10:59:44;;;;;;;15.63;14.00;;;32.30;1.00;;;;;;5090401;28;20167;-77
2022/08/04 11:02:22;;;;;;;16.17;13.82;;;32.40;1.00;;;;;;5076367;28;20176;-74
2022/08/04 11:05:11;;;;;;;18.48;14.18;;;32.20;1.00;;;;;;5090967;28;20186;-76
2022/08/04 11:07:39;;;;;;;16.33;14.63;;;32.20;1.00;;;;;;5090423;28;20525;-76
2022/08/04 11:10:06;;;;;;;17.23;13.38;;;32.20;1.00;;;;;;5094691;28;20179;-75
2022/08/04 11:12:33;;;;;;;15.10;13.68;;;32.20;1.00;;;;;;5079212;28;20273;-75
2022/08/04 11:15:07;;;;;;;14.40;12.68;;;32.10;1.00;;;;;;5075687;28;20233;-75
2022/08/04 11:17:52;;;;;;;14.27;11.80;;;31.80;1.00;;;;;;5074509;28;20175;-76
2022/08/04 11:20:36;;;;;;;14.07;12.75;;;31.80;1.00;;;;;;5062178;28;20292;-75
2022/08/04 11:23:06;;;;;;;13.50;12.07;;;31.50;1.00;;;;;;5074551;28;20191;-75
2022/08/04 11:25:50;;;;;;;14.95;13.23;;;31.20;99.90;;;;;;5075038;28;20168;-76
2022/08/04 11:28:40;;;;;;;12.93;11.73;;;31.30;99.90;;;;;;5061417;28;20173;-75
2022/08/04 11:31:20;;;;;;;13.75;12.30;;;31.00;99.90;;;;;;5075164;28;20165;-78
2022/08/04 11:34:03;;;;;;;15.80;11.93;;;30.60;1.00;;;;;;5074625;28;20202;-75
2022/08/04 11:36:47;;;;;;;17.05;12.73;;;30.50;1.00;;;;;;5074551;28;20175;-76
2022/08/04 11:39:42;;;;;;;14.88;10.27;;;30.30;39.00;;;;;;5075063;28;20180;-77
2022/08/04 11:42:29;;;;;;;12.35;11.07;;;30.20;99.90;;;;;;5074406;28;20239;-75
2022/08/04 11:45:09;;;;;;;18.30;11.48;;;30.50;1.00;;;;;;5073782;28;20628;-74
2022/08/04 11:47:38;;;;;;;12.75;10.73;;;30.60;1.00;;;;;;5073978;28;20168;-75
2022/08/04 11:50:12;;;;;;;13.93;11.75;;;30.80;1.00;;;;;;5073482;28;20172;-74
2022/08/04 11:52:41;;;;;;;12.27;11.00;;;30.60;1.00;;;;;;5072556;28;20189;-73
2022/08/04 11:55:13;;;;;;;9.75;8.85;;;30.10;1.00;;;;;;5074583;28;20636;-73
2022/08/04 11:57:39;;;;;;;9.43;8.45;;;30.30;1.00;;;;;;5072512;28;20200;-73
2022/08/04 12:00:11;;;;;;;8.82;6.85;;;30.60;1.00;;;;;;5072867;28;20160;-73
2022/08/04 12:02:58;;;;;;;9.00;6.70;;;31.10;8.60;;;;;;5074728;28;20169;-75
2022/08/04 12:05:31;;;;;;;12.27;6.82;;;31.40;1.00;;;;;;5074451;28;20255;-74
2022/08/04 12:07:57;;;;;;;9.20;8.10;;;31.60;1.00;;;;;;5073324;28;20267;-75
2022/08/04 12:10:40;;;;;;;10.02;9.07;;;32.00;1.00;;;;;;5074379;28;20176;-76
2022/08/04 12:13:17;;;;;;;8.90;8.00;;;31.90;1.00;;;;;;5109909;28;20218;-75
2022/08/04 12:16:01;;;;;;;10.32;8.05;;;32.20;1.00;;;;;;5113644;28;20175;-72
2022/08/04 12:18:33;;;;;;;13.68;8.00;;;32.00;1.00;;;;;;5112640;28;20167;-74
2022/08/04 12:21:30;;;;;;;9.10;7.53;;;32.20;1.00;;;;;;5096282;28;20194;-75
2022/08/04 12:24:05;;;;;;;7.50;6.80;;;32.20;1.00;;;;;;5031508;28;20720;-75
2022/08/04 12:26:42;;;;;;;9.45;6.88;;;31.70;1.00;;;;;;5031355;28;20193;-74
2022/08/04 12:29:13;;;;;;;9.93;8.95;;;31.40;1.00;;;;;;5031311;28;20740;-77
2022/08/04 12:31:54;;;;;;;9.77;8.82;;;31.40;1.00;;;;;;5031218;28;20240;-77
2022/08/04 12:34:30;;;;;;;9.10;8.20;;;30.50;1.00;;;;;;5031675;28;20182;-77
2022/08/04 12:37:14;;;;;;;12.57;7.10;;;30.20;19.20;;;;;;5031116;28;20286;-76
2022/08/04 12:39:44;;;;;;;9.43;7.25;;;30.20;1.00;;;;;;5030940;28;20185;-76
2022/08/04 12:42:12;;;;;;;7.78;7.00;;;29.90;1.00;;;;;;5030957;28;20213;-76
2022/08/04 12:44:40;;;;;;;11.70;8.82;;;29.90;1.00;;;;;;5031393;28;20189;-75
2022/08/04 12:47:10;;;;;;;10.70;8.00;;;30.10;99.90;;;;;;5014321;28;20641;-78
2022/08/04 12:49:40;;;;;;;10.95;8.55;;;30.20;99.90;;;;;;5040439;28;20193;-75
2022/08/04 12:52:07;;;;;;;9.80;7.75;;;30.20;1.00;;;;;;5031601;28;20259;-76
2022/08/04 12:54:35;;;;;;;7.32;6.63;;;29.90;99.90;;;;;;5030856;28;20203;-75
2022/08/04 12:57:05;;;;;;;6.82;6.13;;;29.90;99.90;;;;;;5030325;28;20186;-76
2022/08/04 12:59:43;;;;;;;7.72;5.53;;;30.20;1.00;;;;;;5031149;28;20185;-76
2022/08/04 13:02:28;;;;;;;7.57;5.55;;;30.20;1.00;;;;;;5099565;28;20267;-75
2022/08/04 13:04:58;;;;;;;7.53;5.60;;;30.30;1.00;;;;;;5113406;28;20243;-74
2022/08/04 13:07:27;;;;;;;10.32;5.50;;;30.30;1.00;;;;;;5112864;28;20221;-76
2022/08/04 13:09:52;;;;;;;5.95;5.35;;;30.60;99.90;;;;;;5112686;28;20170;-73
2022/08/04 13:12:21;;;;;;;7.90;7.30;;;30.70;99.90;;;;;;5113770;28;20310;-72
2022/08/04 13:14:51;;;;;;;8.73;6.13;;;29.80;99.90;;;;;;5113491;28;20181;-73
2022/08/04 13:17:18;;;;;;;8.93;5.85;;;29.30;99.90;;;;;;5113561;28;20202;-74
2022/08/04 13:19:53;;;;;;;7.30;5.38;;;29.50;24.80;;;;;;5095279;28;20530;-73
2022/08/04 13:22:27;;;;;;;6.10;4.68;;;29.80;1.00;;;;;;5112600;28;20229;-72
2022/08/04 13:24:56;;;;;;;7.47;4.78;;;30.60;1.00;;;;;;5113461;28;20182;-72
2022/08/04 13:27:23;;;;;;;9.23;4.90;;;30.80;1.00;;;;;;5113138;28;20224;-73
2022/08/04 13:29:54;;;;;;;5.85;4.70;;;31.20;99.90;;;;;;5113627;28;20176;-73
2022/08/04 13:32:23;;;;;;;5.15;4.68;;;31.50;1.00;;;;;;5112466;28;20191;-74
2022/08/04 13:34:51;;;;;;;6.30;5.25;;;31.60;1.00;;;;;;5113437;28;20194;-74
2022/08/04 13:37:21;;;;;;;6.10;5.10;;;31.70;1.00;;;;;;5112237;28;20167;-75